6B9

Skaneateles Aero Drome Airport

Skaneateles, New York, USA
METAR K6B9 260335Z AUTO 26009G16KT 240V300 10SM OVC005 10/10 A2970 RMK AO2
Observed Flight Rules
Apr-26 @ 03:35 UTC (6 minutes ago) Instrument Flight Rules
Wind Visibility Clouds
260° at 9 knots
 Gusting to 16 knots
10 miles
  • Overcast at 500' AGL
Temperatures Readings
Current 10°C / 50°F
Dewpoint 10°C / 50°F
Humidity 100%
Altimeter 29.7" Hg
Pressure 1006 hPa
Elevation 316
METAR K6B9 260335Z AUTO 26009G16KT 240V300 10SM OVC005 10/10 A2970 RMK AO2
Observed Flight Rules
Apr-26 @ 03:35 UTC
(6 minutes ago)
IFR
Wind Visibility
260° at 9 knots
 Gusting to 16 knots
10 miles
Clouds
  • Overcast at 500' AGL
Temperature Dewpoint
10°C / 50°F 10°C / 50°F
Humidity Altimeter Pressure
100% 29.7" Hg 1006 hPa